createdAt,value
2022-08-30T00:01:27.015Z,18.40
2022-08-30T00:03:56.151Z,18.40
2022-08-30T00:06:24.722Z,18.40
2022-08-30T00:08:54.495Z,18.40
2022-08-30T00:11:25.685Z,18.40
2022-08-30T00:13:56.649Z,18.40
2022-08-30T00:16:26.456Z,18.30
2022-08-30T00:18:54.558Z,18.30
2022-08-30T00:21:23.588Z,18.30
2022-08-30T00:23:52.922Z,18.30
2022-08-30T00:26:20.952Z,18.30
2022-08-30T00:28:49.170Z,18.30
2022-08-30T00:31:17.217Z,18.30
2022-08-30T00:33:45.449Z,18.30
2022-08-30T00:36:13.636Z,18.20
2022-08-30T00:38:41.708Z,18.20
2022-08-30T00:41:11.066Z,18.20
2022-08-30T00:43:39.169Z,18.20
2022-08-30T00:46:08.676Z,18.20
2022-08-30T00:48:41.665Z,18.20
2022-08-30T00:51:12.094Z,18.20
2022-08-30T00:53:43.727Z,18.20
2022-08-30T00:56:13.781Z,18.10
2022-08-30T00:58:46.436Z,18.20
2022-08-30T01:01:15.157Z,18.10
2022-08-30T01:03:44.424Z,18.10
2022-08-30T01:06:15.181Z,18.10
2022-08-30T01:08:43.574Z,18.10
2022-08-30T01:11:14.913Z,18.00
2022-08-30T01:13:43.113Z,18.00
2022-08-30T01:16:11.633Z,18.00
2022-08-30T01:18:40.048Z,18.00
2022-08-30T01:21:16.921Z,17.90
2022-08-30T01:23:49.287Z,17.90
2022-08-30T01:26:19.773Z,17.90
2022-08-30T01:28:54.692Z,18.00
2022-08-30T01:31:23.582Z,17.90
2022-08-30T01:33:54.446Z,17.90
2022-08-30T01:36:22.666Z,17.90
2022-08-30T01:38:55.450Z,17.80
2022-08-30T01:41:26.559Z,17.80
2022-08-30T01:43:57.099Z,17.80
2022-08-30T01:46:28.241Z,17.80
2022-08-30T01:48:58.423Z,17.80
2022-08-30T01:51:28.421Z,17.80
2022-08-30T01:53:58.836Z,17.80
2022-08-30T01:56:28.687Z,17.80
2022-08-30T01:59:02.334Z,17.80
2022-08-30T02:01:32.946Z,17.80
2022-08-30T02:04:01.763Z,17.80
2022-08-30T02:06:29.985Z,17.80
2022-08-30T02:08:59.812Z,17.80
2022-08-30T02:11:27.988Z,17.70
2022-08-30T02:13:56.372Z,17.70
2022-08-30T02:16:26.781Z,17.70
2022-08-30T02:18:57.107Z,17.70
2022-08-30T02:21:25.788Z,17.70
2022-08-30T02:23:53.942Z,17.60
2022-08-30T02:26:23.400Z,17.70
2022-08-30T02:28:52.240Z,17.60
2022-08-30T02:31:21.780Z,17.60
2022-08-30T02:33:51.761Z,17.60
2022-08-30T02:36:21.286Z,17.60
2022-08-30T02:38:49.738Z,17.60
2022-08-30T02:41:17.858Z,17.60
2022-08-30T02:43:47.764Z,17.60
2022-08-30T02:46:15.869Z,17.50
2022-08-30T02:48:44.111Z,17.50
2022-08-30T02:51:14.905Z,17.50
2022-08-30T02:53:44.804Z,17.50
2022-08-30T02:56:14.571Z,17.50
2022-08-30T02:58:43.499Z,17.50
2022-08-30T03:01:14.903Z,17.50
2022-08-30T03:03:45.552Z,17.50
2022-08-30T03:06:13.684Z,17.50
2022-08-30T03:08:42.347Z,17.50
2022-08-30T03:11:10.804Z,17.40
2022-08-30T03:13:38.833Z,17.40
2022-08-30T03:16:07.197Z,17.40
2022-08-30T03:18:37.505Z,17.40
2022-08-30T03:21:11.805Z,17.40
2022-08-30T03:23:40.858Z,17.40
2022-08-30T03:26:09.083Z,17.30
2022-08-30T03:28:37.263Z,17.30
2022-08-30T03:31:05.645Z,17.30
2022-08-30T03:33:33.742Z,17.30
2022-08-30T03:36:03.334Z,17.20
2022-08-30T03:38:31.516Z,17.20
2022-08-30T03:40:59.784Z,17.10
2022-08-30T03:43:28.054Z,17.10
2022-08-30T03:45:57.483Z,17.10
2022-08-30T03:48:26.126Z,17.00
2022-08-30T03:50:54.560Z,17.00
2022-08-30T03:53:27.109Z,17.00
2022-08-30T03:55:55.644Z,17.00
2022-08-30T03:58:25.654Z,17.00
2022-08-30T04:00:53.700Z,17.00
2022-08-30T04:03:25.894Z,17.00
2022-08-30T04:05:54.715Z,17.00
2022-08-30T04:08:24.923Z,17.00
2022-08-30T04:10:53.738Z,17.00
2022-08-30T04:13:22.595Z,16.90
2022-08-30T04:15:51.280Z,16.90
2022-08-30T04:18:19.555Z,16.90
2022-08-30T04:20:47.731Z,16.90
2022-08-30T04:23:15.985Z,16.90
2022-08-30T04:25:45.515Z,16.90
2022-08-30T04:28:13.563Z,16.90
2022-08-30T04:30:43.635Z,16.90
2022-08-30T04:33:12.656Z,16.80
2022-08-30T04:35:43.353Z,16.80
2022-08-30T04:38:11.596Z,16.80
2022-08-30T04:40:39.783Z,16.80
2022-08-30T04:43:11.635Z,16.80
2022-08-30T04:45:41.257Z,16.80
2022-08-30T04:48:10.380Z,16.70
2022-08-30T04:50:38.638Z,16.70
2022-08-30T04:53:07.048Z,16.70
2022-08-30T04:55:35.237Z,16.70
2022-08-30T04:58:03.274Z,16.70
2022-08-30T05:00:33.304Z,16.70
2022-08-30T05:03:02.124Z,16.70
2022-08-30T05:05:42.174Z,16.70
2022-08-30T05:08:12.686Z,16.70
2022-08-30T05:10:41.386Z,16.70
2022-08-30T05:13:09.667Z,16.70
2022-08-30T05:15:40.361Z,16.70
2022-08-30T05:18:13.366Z,16.70
2022-08-30T05:20:43.197Z,16.70
2022-08-30T05:23:11.362Z,16.70
2022-08-30T05:25:41.312Z,16.60
2022-08-30T05:28:10.080Z,16.60
2022-08-30T05:30:39.634Z,16.60
2022-08-30T05:33:07.680Z,16.60
2022-08-30T05:35:35.941Z,16.70
2022-08-30T05:38:04.267Z,16.70
2022-08-30T05:40:32.331Z,16.70
2022-08-30T05:43:00.601Z,16.70
2022-08-30T05:45:28.648Z,16.70
2022-08-30T05:47:58.229Z,16.70
2022-08-30T05:50:26.439Z,16.70
2022-08-30T05:52:54.541Z,16.70
2022-08-30T05:55:22.851Z,16.70
2022-08-30T05:57:51.126Z,16.70
2022-08-30T06:00:20.205Z,16.70
2022-08-30T06:02:48.285Z,16.70
2022-08-30T06:05:17.908Z,16.70
2022-08-30T06:07:46.100Z,16.70
2022-08-30T06:10:16.790Z,16.70
2022-08-30T06:12:45.486Z,16.80
2022-08-30T06:15:13.746Z,16.80
2022-08-30T06:17:41.838Z,16.80
2022-08-30T06:20:11.134Z,16.90
2022-08-30T06:22:40.963Z,16.90
2022-08-30T06:25:10.391Z,17.00
2022-08-30T06:27:38.610Z,17.00
2022-08-30T06:30:11.062Z,17.10
2022-08-30T06:32:39.372Z,17.10
2022-08-30T06:35:08.920Z,17.10
2022-08-30T06:37:37.025Z,17.20
2022-08-30T06:40:07.999Z,17.20
2022-08-30T06:42:36.045Z,17.30
2022-08-30T06:45:10.344Z,17.30
2022-08-30T06:47:39.798Z,17.40
2022-08-30T06:50:12.108Z,17.40
2022-08-30T06:52:42.496Z,17.50
2022-08-30T06:55:14.121Z,17.50
2022-08-30T06:57:42.301Z,17.60
2022-08-30T07:00:14.547Z,17.70
2022-08-30T07:02:43.030Z,17.80
2022-08-30T07:05:18.011Z,17.90
2022-08-30T07:07:46.795Z,17.90
2022-08-30T07:10:17.481Z,18.00
2022-08-30T07:12:45.697Z,18.10
2022-08-30T07:15:14.530Z,18.10
2022-08-30T07:18:00.310Z,18.20
2022-08-30T07:20:40.370Z,18.30
2022-08-30T07:23:09.574Z,18.40
2022-08-30T07:25:39.797Z,18.40
2022-08-30T07:28:09.341Z,18.50
2022-08-30T07:30:38.103Z,18.50
2022-08-30T07:33:06.434Z,18.60
2022-08-30T07:35:34.956Z,18.70
2022-08-30T07:38:03.302Z,18.70
2022-08-30T07:40:31.678Z,18.80
2022-08-30T07:43:02.305Z,18.80
2022-08-30T07:45:30.397Z,18.90
2022-08-30T07:48:00.973Z,18.90
2022-08-30T07:50:29.252Z,19.00
2022-08-30T07:52:57.386Z,19.10
2022-08-30T07:55:25.680Z,19.10
2022-08-30T07:57:53.796Z,19.20
2022-08-30T08:00:23.446Z,19.20
2022-08-30T08:02:53.406Z,19.20
2022-08-30T08:05:24.724Z,19.30
2022-08-30T08:07:53.267Z,19.30
2022-08-30T08:10:21.746Z,19.40
2022-08-30T08:12:49.760Z,19.40
2022-08-30T08:15:20.198Z,19.50
2022-08-30T08:17:51.910Z,19.60
2022-08-30T08:20:20.518Z,19.60
2022-08-30T08:22:48.513Z,19.60
2022-08-30T08:25:17.055Z,19.70
2022-08-30T08:27:47.397Z,19.80
2022-08-30T08:30:15.823Z,19.80
2022-08-30T08:32:43.905Z,19.90
2022-08-30T08:35:13.869Z,19.90
2022-08-30T08:37:42.062Z,20.00
2022-08-30T08:40:14.163Z,20.00
2022-08-30T08:42:54.888Z,20.10
2022-08-30T08:45:27.545Z,20.20
2022-08-30T08:48:01.432Z,20.20
2022-08-30T08:50:34.045Z,20.30
2022-08-30T08:53:45.207Z,20.30
2022-08-30T08:56:15.169Z,20.40
2022-08-30T08:58:44.629Z,20.40
2022-08-30T09:01:15.400Z,20.40
2022-08-30T09:03:45.119Z,20.40
2022-08-30T09:06:36.395Z,20.50
2022-08-30T09:09:07.744Z,20.50
2022-08-30T09:11:38.214Z,20.60
2022-08-30T09:14:10.356Z,20.60
2022-08-30T09:17:03.410Z,20.70
2022-08-30T09:19:34.888Z,20.80
2022-08-30T09:22:07.871Z,20.80
2022-08-30T09:24:43.918Z,20.80
2022-08-30T09:27:18.919Z,20.90
2022-08-30T09:29:54.944Z,20.90
2022-08-30T09:32:28.124Z,20.90
2022-08-30T09:34:56.160Z,20.90
2022-08-30T09:37:32.018Z,20.90
2022-08-30T09:40:01.097Z,20.90
2022-08-30T09:42:32.411Z,21.00
2022-08-30T09:45:11.663Z,21.00
2022-08-30T09:47:42.555Z,21.10
2022-08-30T09:50:14.061Z,21.10
2022-08-30T09:53:09.882Z,21.10
2022-08-30T09:55:53.175Z,21.20
2022-08-30T09:58:30.491Z,21.20
2022-08-30T10:01:05.682Z,21.30
2022-08-30T10:03:40.497Z,21.30
2022-08-30T10:06:16.465Z,21.30
2022-08-30T10:08:58.847Z,21.40
2022-08-30T10:11:34.175Z,21.50
2022-08-30T10:14:27.576Z,21.50
2022-08-30T10:17:03.697Z,21.60
2022-08-30T10:19:43.594Z,21.60
2022-08-30T10:22:17.070Z,21.70
2022-08-30T10:24:51.535Z,21.70
2022-08-30T10:27:24.898Z,21.80
2022-08-30T10:29:59.811Z,21.80
2022-08-30T10:32:34.961Z,21.80
2022-08-30T10:35:07.273Z,21.90
2022-08-30T10:37:40.043Z,22.00
2022-08-30T10:40:33.721Z,22.10
2022-08-30T10:43:05.889Z,22.20
2022-08-30T10:45:38.186Z,22.20
2022-08-30T10:48:17.412Z,22.30
2022-08-30T10:50:55.842Z,22.30
2022-08-30T10:53:31.233Z,22.30
2022-08-30T10:56:06.584Z,22.30
2022-08-30T10:58:35.576Z,22.40
2022-08-30T11:01:18.978Z,22.40
2022-08-30T11:04:36.417Z,22.60
2022-08-30T11:07:18.005Z,22.60
2022-08-30T11:10:01.040Z,22.70
2022-08-30T11:12:54.680Z,22.70
2022-08-30T11:15:25.167Z,22.80
2022-08-30T11:17:59.831Z,22.80
2022-08-30T11:20:36.292Z,22.80
2022-08-30T11:23:33.473Z,22.90
2022-08-30T11:26:05.542Z,23.00
2022-08-30T11:29:07.753Z,23.00
2022-08-30T11:31:39.725Z,23.10
2022-08-30T11:34:11.119Z,23.10
2022-08-30T11:39:57.617Z,23.10
2022-08-30T11:42:36.831Z,23.10
2022-08-30T11:45:42.858Z,23.10
2022-08-30T11:48:54.367Z,23.10
2022-08-30T11:52:26.241Z,23.10
2022-08-30T11:54:59.983Z,23.10
2022-08-30T11:57:38.063Z,23.10
2022-08-30T12:00:11.123Z,23.10
2022-08-30T12:02:55.337Z,23.20
2022-08-30T12:05:53.647Z,23.30
2022-08-30T12:08:45.366Z,23.40
2022-08-30T12:11:54.607Z,23.40
2022-08-30T12:14:49.081Z,23.50
2022-08-30T12:17:46.847Z,23.50
2022-08-30T12:20:23.231Z,23.50
2022-08-30T12:22:53.779Z,23.50
2022-08-30T12:25:29.020Z,23.50
2022-08-30T12:28:15.599Z,23.60
2022-08-30T12:30:52.551Z,23.60
2022-08-30T12:33:41.327Z,23.60
2022-08-30T12:36:14.377Z,23.70
2022-08-30T12:38:42.973Z,23.70
2022-08-30T12:41:21.057Z,23.70
2022-08-30T12:43:52.297Z,23.80
2022-08-30T12:46:23.127Z,23.80
2022-08-30T12:48:51.533Z,23.90
2022-08-30T12:51:35.206Z,23.90
2022-08-30T12:54:10.365Z,24.00
2022-08-30T12:57:01.417Z,24.00
2022-08-30T12:59:54.146Z,24.00
2022-08-30T13:02:27.664Z,24.00
2022-08-30T13:04:57.557Z,24.00
2022-08-30T13:07:32.557Z,24.10
2022-08-30T13:10:14.387Z,24.20
2022-08-30T13:12:58.352Z,24.30
2022-08-30T13:15:32.490Z,24.40
2022-08-30T13:18:27.058Z,24.40
2022-08-30T13:21:11.383Z,24.50
2022-08-30T13:23:40.711Z,24.50
2022-08-30T13:26:09.511Z,24.50
2022-08-30T13:28:47.980Z,24.50
2022-08-30T13:31:17.317Z,24.60
2022-08-30T13:33:46.866Z,24.60
2022-08-30T13:36:15.431Z,24.60
2022-08-30T13:38:43.697Z,24.70
2022-08-30T13:41:11.919Z,24.70
2022-08-30T13:46:28.475Z,24.70
2022-08-30T13:49:03.565Z,24.70
2022-08-30T13:51:32.281Z,24.80
2022-08-30T13:54:01.206Z,24.90
2022-08-30T13:56:31.855Z,24.90
2022-08-30T13:59:00.047Z,24.90
2022-08-30T14:02:07.073Z,24.90
2022-08-30T14:04:21.608Z,25.00
2022-08-30T14:09:38.619Z,25.00
2022-08-30T14:12:07.145Z,25.00
2022-08-30T14:14:42.438Z,25.10
2022-08-30T14:17:12.425Z,25.10
2022-08-30T14:19:42.070Z,25.20
2022-08-30T14:22:10.091Z,25.20
2022-08-30T14:24:38.786Z,25.30
2022-08-30T14:27:07.111Z,25.30
2022-08-30T14:29:36.142Z,25.30
2022-08-30T14:32:05.938Z,25.30
2022-08-30T14:34:34.221Z,25.40
2022-08-30T14:37:06.936Z,25.40
2022-08-30T14:39:37.453Z,25.50
2022-08-30T14:42:07.509Z,25.50
2022-08-30T14:44:55.282Z,25.50
2022-08-30T14:47:29.569Z,25.50
2022-08-30T14:50:01.114Z,25.50
2022-08-30T14:52:30.862Z,25.60
2022-08-30T14:55:05.147Z,25.60
2022-08-30T14:57:38.305Z,25.60
2022-08-30T15:00:09.945Z,25.70
2022-08-30T15:02:38.059Z,25.70
2022-08-30T15:05:08.523Z,25.80
2022-08-30T15:07:38.764Z,25.80
2022-08-30T15:10:07.969Z,25.80
2022-08-30T15:12:36.428Z,25.80
2022-08-30T15:15:04.837Z,25.90
2022-08-30T15:17:33.926Z,25.90
2022-08-30T15:20:01.952Z,25.90
2022-08-30T15:22:29.942Z,25.90
2022-08-30T15:25:01.638Z,25.80
2022-08-30T15:27:29.603Z,25.80
2022-08-30T15:29:58.935Z,25.80
2022-08-30T15:32:27.318Z,25.70
2022-08-30T15:34:55.838Z,25.70
2022-08-30T15:37:24.332Z,25.60
2022-08-30T15:39:53.105Z,25.60
2022-08-30T15:42:22.550Z,25.60
2022-08-30T15:44:52.182Z,25.60
2022-08-30T15:47:22.500Z,25.60
2022-08-30T15:49:57.120Z,25.50
2022-08-30T15:52:26.976Z,25.50
2022-08-30T15:54:55.113Z,25.40
2022-08-30T15:57:25.428Z,25.40
2022-08-30T15:59:54.575Z,25.40
2022-08-30T16:02:27.558Z,25.30
2022-08-30T16:04:56.250Z,25.30
2022-08-30T16:07:24.283Z,25.30
2022-08-30T16:09:53.763Z,25.30
2022-08-30T16:12:23.722Z,25.30
2022-08-30T16:14:53.338Z,25.30
2022-08-30T16:17:21.487Z,25.20
2022-08-30T16:19:50.131Z,25.20
2022-08-30T16:22:18.638Z,25.20
2022-08-30T16:24:50.739Z,25.10
2022-08-30T16:27:18.736Z,25.20
2022-08-30T16:29:50.058Z,25.10
2022-08-30T16:32:20.005Z,25.10
2022-08-30T16:34:47.967Z,25.00
2022-08-30T16:37:15.951Z,24.90
2022-08-30T16:39:46.656Z,24.90
2022-08-30T16:42:20.813Z,24.80
2022-08-30T16:44:49.801Z,24.80
2022-08-30T16:47:19.418Z,24.70
2022-08-30T16:49:47.693Z,24.70
2022-08-30T16:52:15.762Z,24.60
2022-08-30T16:54:46.427Z,24.50
2022-08-30T16:57:20.297Z,24.50
2022-08-30T16:59:52.419Z,24.40
2022-08-30T17:02:22.068Z,24.40
2022-08-30T17:04:53.097Z,24.40
2022-08-30T17:07:22.325Z,24.30
2022-08-30T17:09:50.837Z,24.30
2022-08-30T17:12:18.842Z,24.30
2022-08-30T17:14:47.435Z,24.20
2022-08-30T17:17:15.913Z,24.20
2022-08-30T17:19:45.811Z,24.20
2022-08-30T17:22:15.222Z,24.10
2022-08-30T17:24:43.239Z,24.10
2022-08-30T17:27:11.710Z,24.00
2022-08-30T17:29:39.926Z,24.00
2022-08-30T17:32:08.398Z,23.90
2022-08-30T17:34:37.000Z,23.90
2022-08-30T17:37:06.439Z,23.80
2022-08-30T17:39:34.608Z,23.80
2022-08-30T17:42:04.312Z,23.80
2022-08-30T17:44:36.383Z,23.70
2022-08-30T17:47:04.773Z,23.60
2022-08-30T17:49:33.485Z,23.60
2022-08-30T17:52:02.826Z,23.50
2022-08-30T17:54:34.316Z,23.50
2022-08-30T17:57:10.787Z,23.40
2022-08-30T17:59:39.338Z,23.40
2022-08-30T18:02:11.134Z,23.30
2022-08-30T18:04:39.941Z,23.20
2022-08-30T18:07:12.055Z,23.20
2022-08-30T18:09:42.521Z,23.20
2022-08-30T18:12:11.485Z,23.10
2022-08-30T18:14:39.619Z,23.10
2022-08-30T18:17:08.145Z,23.00
2022-08-30T18:19:37.306Z,23.00
2022-08-30T18:22:14.943Z,23.00
2022-08-30T18:24:44.587Z,22.90
2022-08-30T18:27:13.328Z,22.90
2022-08-30T18:29:41.976Z,22.80
2022-08-30T18:32:11.163Z,22.70
2022-08-30T18:34:40.393Z,22.70
2022-08-30T18:40:00.930Z,22.60
2022-08-30T18:42:29.194Z,22.50
2022-08-30T18:44:57.154Z,22.50
2022-08-30T18:47:25.313Z,22.40
2022-08-30T18:49:54.604Z,22.30
2022-08-30T18:52:23.183Z,22.30
2022-08-30T18:54:52.938Z,22.30
2022-08-30T18:57:23.509Z,22.20
2022-08-30T18:59:51.672Z,22.20
2022-08-30T19:02:20.192Z,22.10
2022-08-30T19:04:49.113Z,22.00
2022-08-30T19:07:19.120Z,22.00
2022-08-30T19:09:47.865Z,22.00
2022-08-30T19:12:16.227Z,21.90
2022-08-30T19:14:45.606Z,21.90
2022-08-30T19:17:14.270Z,21.80
2022-08-30T19:19:49.138Z,21.70
2022-08-30T19:22:19.248Z,21.70
2022-08-30T19:24:47.805Z,21.70
2022-08-30T19:27:19.049Z,21.60
2022-08-30T19:29:53.053Z,21.60
2022-08-30T19:32:22.258Z,21.50
2022-08-30T19:34:50.581Z,21.50
2022-08-30T19:37:19.293Z,21.40
2022-08-30T19:39:47.541Z,21.40
2022-08-30T19:42:15.745Z,21.40
2022-08-30T19:44:44.593Z,21.40
2022-08-30T19:47:13.902Z,21.30
2022-08-30T19:49:41.883Z,21.30
2022-08-30T19:52:09.957Z,21.30
2022-08-30T19:54:38.439Z,21.20
2022-08-30T19:57:09.937Z,21.20
2022-08-30T19:59:38.906Z,21.10
2022-08-30T20:02:07.525Z,21.10
2022-08-30T20:04:38.109Z,21.10
2022-08-30T20:07:09.300Z,21.00
2022-08-30T20:09:37.722Z,21.00
2022-08-30T20:12:06.236Z,21.00
2022-08-30T20:14:34.998Z,20.90
2022-08-30T20:17:03.033Z,20.90
2022-08-30T20:19:32.052Z,20.90
2022-08-30T20:22:05.590Z,20.90
2022-08-30T20:24:27.445Z,22.60
2022-08-30T20:27:09.684Z,20.80
2022-08-30T20:29:40.188Z,20.70
2022-08-30T20:32:08.574Z,20.70
2022-08-30T20:34:36.593Z,20.70
2022-08-30T20:37:09.786Z,20.70
2022-08-30T20:39:39.188Z,20.60
2022-08-30T20:42:07.705Z,20.60
2022-08-30T20:44:35.713Z,20.60
2022-08-30T20:47:05.151Z,20.60
2022-08-30T20:49:33.640Z,20.60
2022-08-30T20:52:01.678Z,20.50
2022-08-30T20:54:34.501Z,20.50
2022-08-30T20:57:02.755Z,20.50
2022-08-30T20:59:30.877Z,20.40
2022-08-30T21:02:00.667Z,20.40
2022-08-30T21:04:31.573Z,20.40
2022-08-30T21:06:59.977Z,20.30
2022-08-30T21:09:28.310Z,20.30
2022-08-30T21:11:57.838Z,20.40
2022-08-30T21:14:25.892Z,20.30
2022-08-30T21:16:54.366Z,20.30
2022-08-30T21:19:22.431Z,20.30
2022-08-30T21:21:50.442Z,20.30
2022-08-30T21:24:18.539Z,20.30
2022-08-30T21:26:46.556Z,20.20
2022-08-30T21:29:16.166Z,20.20
2022-08-30T21:31:44.565Z,20.10
2022-08-30T21:34:17.203Z,20.10
2022-08-30T21:36:48.106Z,20.10
2022-08-30T21:39:19.278Z,20.10
2022-08-30T21:41:48.050Z,20.10
2022-08-30T21:44:20.134Z,20.10
2022-08-30T21:46:49.666Z,20.00
2022-08-30T21:49:20.346Z,20.00
2022-08-30T21:51:49.871Z,20.00
2022-08-30T21:54:19.231Z,19.90
2022-08-30T21:56:49.159Z,19.90
2022-08-30T21:59:19.575Z,19.90
2022-08-30T22:01:48.217Z,19.90
2022-08-30T22:04:16.882Z,19.80
2022-08-30T22:06:48.095Z,19.80
2022-08-30T22:09:18.068Z,19.80
2022-08-30T22:11:47.228Z,19.70
2022-08-30T22:14:16.275Z,19.70
2022-08-30T22:16:46.689Z,19.70
2022-08-30T22:19:16.941Z,19.70
2022-08-30T22:21:48.053Z,19.60
2022-08-30T22:24:17.096Z,19.60
2022-08-30T22:26:46.418Z,19.60
2022-08-30T22:29:14.933Z,19.50
2022-08-30T22:31:45.756Z,19.50
2022-08-30T22:34:13.801Z,19.50
2022-08-30T22:36:42.611Z,19.50
2022-08-30T22:39:10.778Z,19.40
2022-08-30T22:41:41.046Z,19.40
2022-08-30T22:44:09.040Z,19.40
2022-08-30T22:46:38.203Z,19.30
2022-08-30T22:49:09.801Z,19.30
2022-08-30T22:51:38.623Z,19.30
2022-08-30T22:54:08.359Z,19.20
2022-08-30T22:56:38.133Z,19.20
2022-08-30T22:59:07.236Z,19.20
2022-08-30T23:01:38.511Z,19.20
2022-08-30T23:04:09.431Z,19.10
2022-08-30T23:06:37.616Z,19.10
2022-08-30T23:09:06.684Z,19.10
2022-08-30T23:11:35.769Z,19.10
2022-08-30T23:14:04.367Z,19.10
2022-08-30T23:16:33.789Z,19.00
2022-08-30T23:19:01.909Z,19.00
2022-08-30T23:21:31.839Z,19.00
2022-08-30T23:24:18.151Z,18.90
2022-08-30T23:27:04.943Z,18.90
2022-08-30T23:29:51.540Z,18.90
2022-08-30T23:32:37.166Z,18.90
2022-08-30T23:35:29.067Z,18.80
2022-08-30T23:38:16.841Z,18.80
2022-08-30T23:41:02.941Z,18.80
2022-08-30T23:43:48.508Z,18.70
2022-08-30T23:46:34.684Z,18.70
2022-08-30T23:49:20.273Z,18.70
2022-08-30T23:52:05.895Z,18.60
2022-08-30T23:54:54.960Z,18.60
2022-08-30T23:57:44.453Z,18.60
